Ncc Rabigh — HZQA — position and weather

sailwx.info

Track history (hours):
 
Tides and Currents Weather Stations Pressure Air Temp Water Temp Dewpoint Dewpoint Depression Visibility Wind Speed Wind Dir Waves Ship Positions

Ncc Rabigh

Last reported at 2014-Dec-17 07:17 UTC. Time now 2014-Dec-18 20:58 UTC.
Position N 21°42' E 113°12'.

Length 183 m; draft 8.4 m.

Type: Tanker. MMSI: 403575000.

Date/timePositionNaut miles runAvg speedWind from/ knotsBaromVisibWave heightAir tempDewpointWater temp
2014-Dec-17 07:17N 21°42' E 113°12'1014.2
2014-Dec-17 06:33N 21°52' E 113°13'2 1.9
2014-Dec-17 05:33N 21°54' E 113°14'0 0.0
2014-Dec-17 04:33N 21°54' E 113°14'0 0.0
2014-Dec-17 03:27N 21°54' E 113°14'0 0.0
2014-Dec-17 02:33N 21°54' E 113°14'0 0.0
2014-Dec-17 01:27N 21°54' E 113°14'0 0.0
2014-Dec-17 00:33N 21°54' E 113°14'0 0.0
2014-Dec-16 23:09N 21°54' E 113°14'0 0.0
2014-Dec-16 22:33N 21°54' E 113°14'0 0.0
2014-Dec-16 21:27N 21°54' E 113°14'0 0.0
2014-Dec-16 20:33N 21°54' E 113°14'0 0.0
2014-Dec-16 19:27N 21°54' E 113°14'0 0.0
2014-Dec-16 18:33N 21°54' E 113°14'0 0.0
2014-Dec-16 17:33N 21°54' E 113°14'0 0.0
2014-Dec-16 16:27N 21°54' E 113°14'0 0.0
2014-Dec-16 15:33N 21°54' E 113°14'0 0.0
2014-Dec-16 14:33N 21°54' E 113°14'0 0.0
2014-Dec-16 13:33N 21°54' E 113°14'0 0.0
2014-Dec-16 12:33N 21°54' E 113°14'0 0.0
2014-Dec-16 11:33N 21°54' E 113°14'0 0.0
2014-Dec-16 10:27N 21°54' E 113°14'0 0.0
2014-Dec-16 09:33N 21°54' E 113°14'0 0.0
2014-Dec-16 08:21N 21°54' E 113°14'0 0.0
2014-Dec-16 07:27N 21°54' E 113°14'0 0.0
2014-Dec-16 06:33N 21°54' E 113°14'0 0.0
2014-Dec-16 05:10N 21°54' E 113°14'0 0.0
2014-Dec-16 04:22N 21°54' E 113°14'0 0.0
2014-Dec-16 03:28N 21°54' E 113°14'0 0.0
2014-Dec-16 01:03N 21°54' E 113°14'0 0.0
2014-Dec-15 23:15N 21°54' E 113°14'0 0.0
2014-Dec-15 21:27N 21°54' E 113°14'0 0.0
2014-Dec-15 20:33N 21°54' E 113°14'0 0.0
2014-Dec-15 19:33N 21°54' E 113°14'0 0.0
2014-Dec-15 18:33N 21°54' E 113°14'0 0.0
2014-Dec-15 17:27N 21°54' E 113°14'0 0.0
2014-Dec-15 16:27N 21°54' E 113°14'0 0.0
2014-Dec-15 15:33N 21°54' E 113°14'0 0.0
2014-Dec-15 14:15N 21°54' E 113°14'0 0.0
2014-Dec-15 13:33N 21°54' E 113°14'0 0.0
2014-Dec-15 12:33N 21°54' E 113°14'0 0.0
2014-Dec-15 11:33N 21°54' E 113°14'0 0.0
2014-Dec-15 10:27N 21°54' E 113°14'0 0.0
2014-Dec-15 09:33N 21°54' E 113°14'0 0.0
2014-Dec-15 08:33N 21°54' E 113°14'0 0.0
2014-Dec-15 07:27N 21°54' E 113°14'1 1.2
2014-Dec-15 06:33N 21°53' E 113°13'4 4.1
2014-Dec-15 05:33N 21°49' E 113°15'1 0.7
2014-Dec-15 04:31N 21°49' E 113°16'0 0.0
2014-Dec-15 03:26N 21°49' E 113°16'0 0.0
2014-Dec-15 02:32N 21°49' E 113°16'0 0.0
2014-Dec-14 21:13N 21°49' E 113°16'0 0.0
2014-Dec-14 20:31N 21°49' E 113°16'0 0.0
2014-Dec-14 19:31N 21°49' E 113°16'0 0.1
2014-Dec-14 18:32N 21°49' E 113°16'0 0.0
2014-Dec-14 17:32N 21°49' E 113°16'0 0.1
2014-Dec-14 16:32N 21°49' E 113°16'0 0.0
2014-Dec-14 15:32N 21°49' E 113°16'0 0.0
2014-Dec-14 14:32N 21°49' E 113°16'0 0.0
2014-Dec-14 13:31N 21°49' E 113°16'0 0.0
2014-Dec-14 12:26N 21°49' E 113°16'0 0.0
2014-Dec-14 11:31N 21°49' E 113°16'0 0.0
2014-Dec-14 10:20N 21°49' E 113°16'0 0.0
2014-Dec-14 09:26N 21°49' E 113°16'0 0.0
2014-Dec-14 08:31N 21°49' E 113°16'0 0.0
2014-Dec-14 07:31N 21°49' E 113°16'0 0.0
2014-Dec-14 06:31N 21°49' E 113°16'0 0.0
2014-Dec-14 05:32N 21°49' E 113°16'0 0.0
2014-Dec-14 04:32N 21°49' E 113°16'0 0.0
2014-Dec-14 03:32N 21°49' E 113°16'0 0.0
2014-Dec-14 02:31N 21°49' E 113°16'0 0.0
2014-Dec-14 01:32N 21°49' E 113°16'0 0.0
2014-Dec-14 00:26N 21°49' E 113°16'0 0.0
2014-Dec-13 23:31N 21°49' E 113°16'0 0.1
2014-Dec-13 22:32N 21°49' E 113°16'0 0.0
2014-Dec-13 21:26N 21°49' E 113°16'0 0.0
2014-Dec-13 20:14N 21°49' E 113°16'0 0.0
2014-Dec-13 19:26N 21°49' E 113°16'0 0.0
2014-Dec-13 18:26N 21°49' E 113°16'0 0.1
2014-Dec-13 17:31N 21°49' E 113°16'0 0.0
2014-Dec-13 16:32N 21°49' E 113°16'0 0.0
2014-Dec-13 15:32N 21°49' E 113°16'0 0.0
2014-Dec-13 14:31N 21°49' E 113°16'0 0.0
2014-Dec-13 13:32N 21°49' E 113°16'0 0.0
2014-Dec-13 12:32N 21°49' E 113°16'0 0.0
2014-Dec-13 11:31N 21°49' E 113°16'0 0.0
2014-Dec-13 10:32N 21°49' E 113°16'0 0.0
2014-Dec-13 09:20N 21°49' E 113°16'0 0.0
2014-Dec-13 08:26N 21°49' E 113°16'0 0.0
2014-Dec-13 07:32N 21°49' E 113°16'0 0.0
2014-Dec-13 06:20N 21°49' E 113°16'0 0.0
2014-Dec-13 05:32N 21°49' E 113°16'0 0.0
2014-Dec-13 04:20N 21°49' E 113°16'0 0.0
2014-Dec-13 03:32N 21°49' E 113°16'7 6.7
2014-Dec-13 02:31N 21°42' E 113°13'  
2014-Dec-07 20:16N 01°15' E 104°05'811.6
2014-Dec-07 19:33N 01°13' E 103°57'  
Track history (hours):
 
Tides and Currents Weather Stations Pressure Air Temp Water Temp Dewpoint Dewpoint Depression Visibility Wind Speed Wind Dir Waves Ship Positions

Ncc Rabigh

Last reported at 2014-Dec-17 07:17 UTC. Time now 2014-Dec-18 20:58 UTC.
Position N 21°42' E 113°12'.

Length 183 m; draft 8.4 m.

Type: Tanker. MMSI: 403575000.

Date/timePositionNaut miles runAvg speedWind from/ knotsBaromVisibWave heightAir tempDewpointWater temp
2014-Dec-17 07:17N 21°42' E 113°12'1014.2
2014-Dec-17 06:33N 21°52' E 113°13'2 1.9
2014-Dec-17 05:33N 21°54' E 113°14'0 0.0
2014-Dec-17 04:33N 21°54' E 113°14'0 0.0
2014-Dec-17 03:27N 21°54' E 113°14'0 0.0
2014-Dec-17 02:33N 21°54' E 113°14'0 0.0
2014-Dec-17 01:27N 21°54' E 113°14'0 0.0
2014-Dec-17 00:33N 21°54' E 113°14'0 0.0
2014-Dec-16 23:09N 21°54' E 113°14'0 0.0
2014-Dec-16 22:33N 21°54' E 113°14'0 0.0
2014-Dec-16 21:27N 21°54' E 113°14'0 0.0
2014-Dec-16 20:33N 21°54' E 113°14'0 0.0
2014-Dec-16 19:27N 21°54' E 113°14'0 0.0
2014-Dec-16 18:33N 21°54' E 113°14'0 0.0
2014-Dec-16 17:33N 21°54' E 113°14'0 0.0
2014-Dec-16 16:27N 21°54' E 113°14'0 0.0
2014-Dec-16 15:33N 21°54' E 113°14'0 0.0
2014-Dec-16 14:33N 21°54' E 113°14'0 0.0
2014-Dec-16 13:33N 21°54' E 113°14'0 0.0
2014-Dec-16 12:33N 21°54' E 113°14'0 0.0
2014-Dec-16 11:33N 21°54' E 113°14'0 0.0
2014-Dec-16 10:27N 21°54' E 113°14'0 0.0
2014-Dec-16 09:33N 21°54' E 113°14'0 0.0
2014-Dec-16 08:21N 21°54' E 113°14'0 0.0
2014-Dec-16 07:27N 21°54' E 113°14'0 0.0
2014-Dec-16 06:33N 21°54' E 113°14'0 0.0
2014-Dec-16 05:10N 21°54' E 113°14'0 0.0
2014-Dec-16 04:22N 21°54' E 113°14'0 0.0
2014-Dec-16 03:28N 21°54' E 113°14'0 0.0
2014-Dec-16 01:03N 21°54' E 113°14'0 0.0
2014-Dec-15 23:15N 21°54' E 113°14'0 0.0
2014-Dec-15 21:27N 21°54' E 113°14'0 0.0
2014-Dec-15 20:33N 21°54' E 113°14'0 0.0
2014-Dec-15 19:33N 21°54' E 113°14'0 0.0
2014-Dec-15 18:33N 21°54' E 113°14'0 0.0
2014-Dec-15 17:27N 21°54' E 113°14'0 0.0
2014-Dec-15 16:27N 21°54' E 113°14'0 0.0
2014-Dec-15 15:33N 21°54' E 113°14'0 0.0
2014-Dec-15 14:15N 21°54' E 113°14'0 0.0
2014-Dec-15 13:33N 21°54' E 113°14'0 0.0
2014-Dec-15 12:33N 21°54' E 113°14'0 0.0
2014-Dec-15 11:33N 21°54' E 113°14'0 0.0
2014-Dec-15 10:27N 21°54' E 113°14'0 0.0
2014-Dec-15 09:33N 21°54' E 113°14'0 0.0
2014-Dec-15 08:33N 21°54' E 113°14'0 0.0
2014-Dec-15 07:27N 21°54' E 113°14'1 1.2
2014-Dec-15 06:33N 21°53' E 113°13'4 4.1
2014-Dec-15 05:33N 21°49' E 113°15'1 0.7
2014-Dec-15 04:31N 21°49' E 113°16'0 0.0
2014-Dec-15 03:26N 21°49' E 113°16'0 0.0
2014-Dec-15 02:32N 21°49' E 113°16'0 0.0
2014-Dec-14 21:13N 21°49' E 113°16'0 0.0
2014-Dec-14 20:31N 21°49' E 113°16'0 0.0
2014-Dec-14 19:31N 21°49' E 113°16'0 0.1
2014-Dec-14 18:32N 21°49' E 113°16'0 0.0
2014-Dec-14 17:32N 21°49' E 113°16'0 0.1
2014-Dec-14 16:32N 21°49' E 113°16'0 0.0
2014-Dec-14 15:32N 21°49' E 113°16'0 0.0
2014-Dec-14 14:32N 21°49' E 113°16'0 0.0
2014-Dec-14 13:31N 21°49' E 113°16'0 0.0
2014-Dec-14 12:26N 21°49' E 113°16'0 0.0
2014-Dec-14 11:31N 21°49' E 113°16'0 0.0
2014-Dec-14 10:20N 21°49' E 113°16'0 0.0
2014-Dec-14 09:26N 21°49' E 113°16'0 0.0
2014-Dec-14 08:31N 21°49' E 113°16'0 0.0
2014-Dec-14 07:31N 21°49' E 113°16'0 0.0
2014-Dec-14 06:31N 21°49' E 113°16'0 0.0
2014-Dec-14 05:32N 21°49' E 113°16'0 0.0
2014-Dec-14 04:32N 21°49' E 113°16'0 0.0
2014-Dec-14 03:32N 21°49' E 113°16'0 0.0
2014-Dec-14 02:31N 21°49' E 113°16'0 0.0
2014-Dec-14 01:32N 21°49' E 113°16'0 0.0
2014-Dec-14 00:26N 21°49' E 113°16'0 0.0
2014-Dec-13 23:31N 21°49' E 113°16'0 0.1
2014-Dec-13 22:32N 21°49' E 113°16'0 0.0
2014-Dec-13 21:26N 21°49' E 113°16'0 0.0
2014-Dec-13 20:14N 21°49' E 113°16'0 0.0
2014-Dec-13 19:26N 21°49' E 113°16'0 0.0
2014-Dec-13 18:26N 21°49' E 113°16'0 0.1
2014-Dec-13 17:31N 21°49' E 113°16'0 0.0
2014-Dec-13 16:32N 21°49' E 113°16'0 0.0
2014-Dec-13 15:32N 21°49' E 113°16'0 0.0
2014-Dec-13 14:31N 21°49' E 113°16'0 0.0
2014-Dec-13 13:32N 21°49' E 113°16'0 0.0
2014-Dec-13 12:32N 21°49' E 113°16'0 0.0
2014-Dec-13 11:31N 21°49' E 113°16'0 0.0
2014-Dec-13 10:32N 21°49' E 113°16'0 0.0
2014-Dec-13 09:20N 21°49' E 113°16'0 0.0
2014-Dec-13 08:26N 21°49' E 113°16'0 0.0
2014-Dec-13 07:32N 21°49' E 113°16'0 0.0
2014-Dec-13 06:20N 21°49' E 113°16'0 0.0
2014-Dec-13 05:32N 21°49' E 113°16'0 0.0
2014-Dec-13 04:20N 21°49' E 113°16'0 0.0
2014-Dec-13 03:32N 21°49' E 113°16'7 6.7
2014-Dec-13 02:31N 21°42' E 113°13'  
2014-Dec-07 20:16N 01°15' E 104°05'811.6
2014-Dec-07 19:33N 01°13' E 103°57'  

Dump ship's entire track history